Mandarin Grace — 9V8352 — position and weather

sailwx.info

Track history (hours):
 
Tides and Currents Weather Stations Pressure Air Temp Water Temp Dewpoint Dewpoint Depression Visibility Wind Speed Wind Dir Waves Ship Positions

Mandarin Grace

Last reported at 2015-Apr-11 21:08 UTC. Time now 2015-May-04 20:07 UTC.
Position S 24°32' W 046°13'.
Warning: this ship's position is 22 days out of date.

Length 190 m; draft 12.9 m.

Type: Cargo ship. MMSI: 563862000.

Date/timePositionNaut miles runAvg speedWind from/ knotsBaromVisibWave heightAir tempDewpointWater temp
2015-Apr-11 21:08S 24°32' W 046°13'812.0
2015-Apr-11 20:27S 24°25' W 046°18'1011.7
2015-Apr-11 19:34S 24°16' W 046°22'1211.5
2015-Apr-11 18:33S 24°04' W 046°22'7 7.1
2015-Apr-11 17:34S 23°58' W 046°18'2 1.6
2015-Apr-11 16:33S 23°57' W 046°19'0 0.0
2015-Apr-11 15:33S 23°57' W 046°19'0 0.0
2015-Apr-11 14:30S 23°57' W 046°19'0 0.0
2015-Apr-11 13:33S 23°57' W 046°19'0 0.0
2015-Apr-11 12:33S 23°57' W 046°19'0 0.0
2015-Apr-11 11:33S 23°57' W 046°19'0 0.0
2015-Apr-11 10:33S 23°57' W 046°19'0 0.0
2015-Apr-11 09:30S 23°57' W 046°19'0 0.0
2015-Apr-11 08:33S 23°57' W 046°19'0 0.0
2015-Apr-11 07:33S 23°57' W 046°19'0 0.0
2015-Apr-11 06:33S 23°57' W 046°19'0 0.0
2015-Apr-11 05:30S 23°57' W 046°19'0 0.0
2015-Apr-11 04:33S 23°57' W 046°19'0 0.0
2015-Apr-11 03:33S 23°57' W 046°19'0 0.0
2015-Apr-11 02:33S 23°57' W 046°19'0 0.0
2015-Apr-11 01:33S 23°57' W 046°19'0 0.0
2015-Apr-11 00:33S 23°57' W 046°19'3 3.3
2015-Apr-10 23:33S 23°60' W 046°20'7 7.0
2015-Apr-10 22:33S 24°06' W 046°22'2 1.5
2015-Apr-10 21:29S 24°07' W 046°21'0 0.0
2015-Apr-10 20:29S 24°07' W 046°21'0 0.0
2015-Apr-10 19:26S 24°07' W 046°21'0 0.0
2015-Apr-10 18:29S 24°07' W 046°21'0 0.0
2015-Apr-10 17:23S 24°07' W 046°21'0 0.0
2015-Apr-10 16:32S 24°07' W 046°21'0 0.0
2015-Apr-10 15:29S 24°07' W 046°21'0 0.0
2015-Apr-10 14:32S 24°07' W 046°21'0 0.0
2015-Apr-10 13:26S 24°07' W 046°21'0 0.0
2015-Apr-10 12:32S 24°07' W 046°21'0 0.0
2015-Apr-10 11:32S 24°07' W 046°21'0 0.0
2015-Apr-10 10:29S 24°07' W 046°21'0 0.0
2015-Apr-10 09:29S 24°07' W 046°21'0 0.0
2015-Apr-10 08:29S 24°07' W 046°21'0 0.0
2015-Apr-10 07:17S 24°07' W 046°21'0 0.0
2015-Apr-10 06:26S 24°07' W 046°21'0 0.0
2015-Apr-10 05:14S 24°07' W 046°21'0 0.0
2015-Apr-10 04:32S 24°07' W 046°21'0 0.0
2015-Apr-10 03:32S 24°07' W 046°21'0 0.0
2015-Apr-10 02:32S 24°07' W 046°21'0 0.0
2015-Apr-10 01:26S 24°07' W 046°21'0 0.0
2015-Apr-10 00:32S 24°07' W 046°21'0 0.0
2015-Apr-09 23:32S 24°07' W 046°21'0 0.0
2015-Apr-09 22:26S 24°07' W 046°21'0 0.0
2015-Apr-09 21:26S 24°07' W 046°21'0 0.0
2015-Apr-09 20:26S 24°07' W 046°21'0 0.0
2015-Apr-09 19:32S 24°07' W 046°21'0 0.0
2015-Apr-09 18:26S 24°07' W 046°21'0 0.0
2015-Apr-09 17:26S 24°07' W 046°21'0 0.0
2015-Apr-09 16:23S 24°07' W 046°21'0 0.0
2015-Apr-09 15:32S 24°07' W 046°21'0 0.0
2015-Apr-09 14:29S 24°07' W 046°21'0 0.0
2015-Apr-09 13:32S 24°07' W 046°21'0 0.0
2015-Apr-09 12:29S 24°07' W 046°21'0 0.0
2015-Apr-09 11:32S 24°07' W 046°21'0 0.1
2015-Apr-09 10:32S 24°07' W 046°21'0 0.2
2015-Apr-09 09:32S 24°07' W 046°21'2 2.4
2015-Apr-09 08:33S 24°10' W 046°22'1110.7
2015-Apr-09 07:34S 24°20' W 046°25'1312.6
2015-Apr-09 06:33S 24°32' W 046°28'  
2015-Apr-05 22:32S 25°19' W 046°48'1413.0
2015-Apr-05 21:30S 25°16' W 046°33'1313.5
2015-Apr-05 20:34S 25°13' W 046°20'1413.9
2015-Apr-05 19:33S 25°09' W 046°05'1614.3
2015-Apr-05 18:25S 25°05' W 045°48'1213.7
2015-Apr-05 17:32S 25°02' W 045°35'1313.4
2015-Apr-05 16:33S 24°59' W 045°20'1413.6
2015-Apr-05 15:33S 24°56' W 045°06'1413.5
2015-Apr-05 14:32S 24°52' W 044°51'1813.7
2015-Apr-05 13:13S 24°48' W 044°32'  
Track history (hours):
 
Tides and Currents Weather Stations Pressure Air Temp Water Temp Dewpoint Dewpoint Depression Visibility Wind Speed Wind Dir Waves Ship Positions

Mandarin Grace

Last reported at 2015-Apr-11 21:08 UTC. Time now 2015-May-04 20:07 UTC.
Position S 24°32' W 046°13'.
Warning: this ship's position is 22 days out of date.

Length 190 m; draft 12.9 m.

Type: Cargo ship. MMSI: 563862000.

Date/timePositionNaut miles runAvg speedWind from/ knotsBaromVisibWave heightAir tempDewpointWater temp
2015-Apr-11 21:08S 24°32' W 046°13'812.0
2015-Apr-11 20:27S 24°25' W 046°18'1011.7
2015-Apr-11 19:34S 24°16' W 046°22'1211.5
2015-Apr-11 18:33S 24°04' W 046°22'7 7.1
2015-Apr-11 17:34S 23°58' W 046°18'2 1.6
2015-Apr-11 16:33S 23°57' W 046°19'0 0.0
2015-Apr-11 15:33S 23°57' W 046°19'0 0.0
2015-Apr-11 14:30S 23°57' W 046°19'0 0.0
2015-Apr-11 13:33S 23°57' W 046°19'0 0.0
2015-Apr-11 12:33S 23°57' W 046°19'0 0.0
2015-Apr-11 11:33S 23°57' W 046°19'0 0.0
2015-Apr-11 10:33S 23°57' W 046°19'0 0.0
2015-Apr-11 09:30S 23°57' W 046°19'0 0.0
2015-Apr-11 08:33S 23°57' W 046°19'0 0.0
2015-Apr-11 07:33S 23°57' W 046°19'0 0.0
2015-Apr-11 06:33S 23°57' W 046°19'0 0.0
2015-Apr-11 05:30S 23°57' W 046°19'0 0.0
2015-Apr-11 04:33S 23°57' W 046°19'0 0.0
2015-Apr-11 03:33S 23°57' W 046°19'0 0.0
2015-Apr-11 02:33S 23°57' W 046°19'0 0.0
2015-Apr-11 01:33S 23°57' W 046°19'0 0.0
2015-Apr-11 00:33S 23°57' W 046°19'3 3.3
2015-Apr-10 23:33S 23°60' W 046°20'7 7.0
2015-Apr-10 22:33S 24°06' W 046°22'2 1.5
2015-Apr-10 21:29S 24°07' W 046°21'0 0.0
2015-Apr-10 20:29S 24°07' W 046°21'0 0.0
2015-Apr-10 19:26S 24°07' W 046°21'0 0.0
2015-Apr-10 18:29S 24°07' W 046°21'0 0.0
2015-Apr-10 17:23S 24°07' W 046°21'0 0.0
2015-Apr-10 16:32S 24°07' W 046°21'0 0.0
2015-Apr-10 15:29S 24°07' W 046°21'0 0.0
2015-Apr-10 14:32S 24°07' W 046°21'0 0.0
2015-Apr-10 13:26S 24°07' W 046°21'0 0.0
2015-Apr-10 12:32S 24°07' W 046°21'0 0.0
2015-Apr-10 11:32S 24°07' W 046°21'0 0.0
2015-Apr-10 10:29S 24°07' W 046°21'0 0.0
2015-Apr-10 09:29S 24°07' W 046°21'0 0.0
2015-Apr-10 08:29S 24°07' W 046°21'0 0.0
2015-Apr-10 07:17S 24°07' W 046°21'0 0.0
2015-Apr-10 06:26S 24°07' W 046°21'0 0.0
2015-Apr-10 05:14S 24°07' W 046°21'0 0.0
2015-Apr-10 04:32S 24°07' W 046°21'0 0.0
2015-Apr-10 03:32S 24°07' W 046°21'0 0.0
2015-Apr-10 02:32S 24°07' W 046°21'0 0.0
2015-Apr-10 01:26S 24°07' W 046°21'0 0.0
2015-Apr-10 00:32S 24°07' W 046°21'0 0.0
2015-Apr-09 23:32S 24°07' W 046°21'0 0.0
2015-Apr-09 22:26S 24°07' W 046°21'0 0.0
2015-Apr-09 21:26S 24°07' W 046°21'0 0.0
2015-Apr-09 20:26S 24°07' W 046°21'0 0.0
2015-Apr-09 19:32S 24°07' W 046°21'0 0.0
2015-Apr-09 18:26S 24°07' W 046°21'0 0.0
2015-Apr-09 17:26S 24°07' W 046°21'0 0.0
2015-Apr-09 16:23S 24°07' W 046°21'0 0.0
2015-Apr-09 15:32S 24°07' W 046°21'0 0.0
2015-Apr-09 14:29S 24°07' W 046°21'0 0.0
2015-Apr-09 13:32S 24°07' W 046°21'0 0.0
2015-Apr-09 12:29S 24°07' W 046°21'0 0.0
2015-Apr-09 11:32S 24°07' W 046°21'0 0.1
2015-Apr-09 10:32S 24°07' W 046°21'0 0.2
2015-Apr-09 09:32S 24°07' W 046°21'2 2.4
2015-Apr-09 08:33S 24°10' W 046°22'1110.7
2015-Apr-09 07:34S 24°20' W 046°25'1312.6
2015-Apr-09 06:33S 24°32' W 046°28'  
2015-Apr-05 22:32S 25°19' W 046°48'1413.0
2015-Apr-05 21:30S 25°16' W 046°33'1313.5
2015-Apr-05 20:34S 25°13' W 046°20'1413.9
2015-Apr-05 19:33S 25°09' W 046°05'1614.3
2015-Apr-05 18:25S 25°05' W 045°48'1213.7
2015-Apr-05 17:32S 25°02' W 045°35'1313.4
2015-Apr-05 16:33S 24°59' W 045°20'1413.6
2015-Apr-05 15:33S 24°56' W 045°06'1413.5
2015-Apr-05 14:32S 24°52' W 044°51'1813.7
2015-Apr-05 13:13S 24°48' W 044°32'  

Dump ship's entire track history